createdAt,value
2022-10-30T00:00:44.853Z,12.25
2022-10-30T00:03:14.281Z,12.21
2022-10-30T00:05:44.526Z,12.29
2022-10-30T00:08:14.605Z,11.96
2022-10-30T00:10:43.154Z,11.94
2022-10-30T00:13:12.454Z,11.86
2022-10-30T00:15:47.581Z,11.99
2022-10-30T00:18:15.944Z,12.06
2022-10-30T00:20:44.256Z,12.04
2022-10-30T00:23:12.573Z,12.23
2022-10-30T00:25:40.983Z,11.84
2022-10-30T00:28:09.491Z,11.24
2022-10-30T00:30:38.871Z,11.62
2022-10-30T00:33:08.580Z,11.97
2022-10-30T00:35:36.946Z,12.22
2022-10-30T00:38:05.239Z,12.09
2022-10-30T00:40:33.915Z,11.90
2022-10-30T00:43:02.157Z,11.55
2022-10-30T00:45:30.411Z,11.44
2022-10-30T00:48:03.066Z,11.57
2022-10-30T00:50:38.088Z,11.83
2022-10-30T00:53:08.867Z,11.89
2022-10-30T00:55:41.272Z,11.88
2022-10-30T00:58:13.587Z,11.83
2022-10-30T01:00:45.099Z,11.70
2022-10-30T01:03:13.471Z,11.70
2022-10-30T01:05:47.964Z,11.69
2022-10-30T01:08:16.287Z,11.44
2022-10-30T01:10:45.351Z,11.53
2022-10-30T01:13:14.008Z,11.56
2022-10-30T01:15:53.346Z,11.62
2022-10-30T01:18:36.105Z,11.35
2022-10-30T01:21:24.878Z,11.34
2022-10-30T01:24:04.057Z,11.39
2022-10-30T01:26:45.185Z,11.41
2022-10-30T01:29:29.713Z,11.25
2022-10-30T01:32:13.657Z,10.56
2022-10-30T01:34:48.441Z,9.58
2022-10-30T01:37:24.246Z,9.49
2022-10-30T01:39:53.778Z,9.10
2022-10-30T01:42:55.691Z,8.64
2022-10-30T01:45:33.045Z,8.57
2022-10-30T01:48:28.335Z,8.77
2022-10-30T01:51:02.215Z,8.85
2022-10-30T01:53:45.440Z,9.29
2022-10-30T01:56:27.780Z,9.40
2022-10-30T01:59:02.112Z,9.69
2022-10-30T02:01:35.101Z,9.43
2022-10-30T02:06:37.709Z,9.78
2022-10-30T02:09:08.123Z,9.85
2022-10-30T02:11:37.274Z,10.15
2022-10-30T02:14:08.246Z,9.61
2022-10-30T02:16:40.179Z,10.17
2022-10-30T02:19:08.406Z,10.00
2022-10-30T02:21:38.150Z,9.87
2022-10-30T02:24:07.318Z,9.81
2022-10-30T02:26:35.821Z,9.89
2022-10-30T02:29:04.088Z,9.69
2022-10-30T02:31:32.400Z,9.84
2022-10-30T02:34:00.675Z,10.04
2022-10-30T02:36:28.966Z,10.27
2022-10-30T02:38:58.683Z,10.25
2022-10-30T02:41:27.024Z,10.28
2022-10-30T02:43:55.359Z,10.14
2022-10-30T02:46:23.754Z,10.13
2022-10-30T02:48:52.042Z,8.93
2022-10-30T02:51:20.349Z,9.61
2022-10-30T02:53:48.688Z,9.68
2022-10-30T02:56:18.771Z,9.95
2022-10-30T02:58:46.998Z,10.34
2022-10-30T03:01:16.943Z,10.25
2022-10-30T03:03:46.048Z,10.48
2022-10-30T03:06:16.762Z,10.56
2022-10-30T03:08:45.944Z,10.36
2022-10-30T03:11:16.630Z,10.35
2022-10-30T03:13:47.909Z,10.38
2022-10-30T03:16:18.029Z,10.57
2022-10-30T03:18:46.548Z,10.66
2022-10-30T03:21:16.115Z,10.50
2022-10-30T03:23:44.578Z,10.38
2022-10-30T03:26:13.230Z,10.47
2022-10-30T03:28:41.503Z,10.43
2022-10-30T03:31:12.935Z,10.55
2022-10-30T03:33:41.602Z,10.44
2022-10-30T03:36:12.350Z,9.92
2022-10-30T03:38:40.909Z,9.92
2022-10-30T03:41:09.148Z,10.08
2022-10-30T03:43:37.391Z,9.96
2022-10-30T03:46:06.133Z,10.06
2022-10-30T03:48:35.779Z,10.13
2022-10-30T03:51:04.762Z,10.30
2022-10-30T03:53:33.049Z,10.14
2022-10-30T03:56:03.082Z,10.32
2022-10-30T03:58:31.874Z,10.20
2022-10-30T04:01:03.221Z,9.63
2022-10-30T04:03:31.615Z,10.21
2022-10-30T04:06:01.302Z,10.18
2022-10-30T04:08:29.509Z,10.19
2022-10-30T04:10:57.801Z,10.30
2022-10-30T04:13:26.062Z,10.31
2022-10-30T04:15:57.993Z,10.40
2022-10-30T04:18:27.440Z,10.33
2022-10-30T04:20:55.920Z,9.58
2022-10-30T04:23:25.551Z,9.87
2022-10-30T04:25:53.785Z,10.06
2022-10-30T04:28:22.312Z,9.69
2022-10-30T04:30:52.015Z,9.93
2022-10-30T04:33:20.257Z,9.50
2022-10-30T04:35:48.503Z,8.79
2022-10-30T04:38:19.125Z,8.64
2022-10-30T04:40:48.739Z,8.07
2022-10-30T04:43:16.931Z,8.31
2022-10-30T04:45:45.092Z,8.14
2022-10-30T04:48:15.054Z,8.35
2022-10-30T04:50:43.962Z,8.64
2022-10-30T04:53:15.240Z,8.38
2022-10-30T04:55:44.268Z,8.53
2022-10-30T04:58:14.494Z,8.28
2022-10-30T05:00:43.244Z,8.32
2022-10-30T05:03:19.694Z,8.50
2022-10-30T05:05:49.101Z,7.37
2022-10-30T05:08:17.293Z,8.30
2022-10-30T05:10:45.474Z,8.49
2022-10-30T05:13:15.107Z,8.43
2022-10-30T05:15:43.373Z,8.44
2022-10-30T05:18:11.850Z,7.83
2022-10-30T05:20:40.065Z,8.19
2022-10-30T05:23:08.545Z,8.25
2022-10-30T05:25:36.818Z,8.37
2022-10-30T05:28:07.802Z,8.12
2022-10-30T05:30:37.535Z,8.60
2022-10-30T05:33:08.018Z,9.07
2022-10-30T05:35:37.158Z,9.44
2022-10-30T05:38:08.400Z,9.66
2022-10-30T05:40:36.647Z,9.89
2022-10-30T05:43:05.456Z,10.14
2022-10-30T05:45:33.688Z,10.43
2022-10-30T05:48:04.805Z,10.93
2022-10-30T05:50:34.030Z,11.23
2022-10-30T05:53:04.052Z,11.43
2022-10-30T05:55:32.742Z,11.45
2022-10-30T05:58:02.596Z,11.61
2022-10-30T06:00:32.377Z,11.66
2022-10-30T06:03:03.353Z,12.09
2022-10-30T06:05:33.546Z,12.26
2022-10-30T06:08:01.988Z,12.52
2022-10-30T06:10:30.724Z,13.23
2022-10-30T06:13:01.227Z,13.05
2022-10-30T06:15:31.179Z,12.84
2022-10-30T06:17:59.858Z,13.20
2022-10-30T06:20:31.529Z,13.96
2022-10-30T06:23:01.455Z,14.07
2022-10-30T06:25:31.115Z,14.46
2022-10-30T06:28:00.884Z,14.38
2022-10-30T06:30:29.750Z,14.97
2022-10-30T06:32:59.771Z,14.87
2022-10-30T06:35:30.426Z,15.41
2022-10-30T06:38:00.365Z,15.55
2022-10-30T06:40:30.168Z,15.05
2022-10-30T06:42:59.466Z,15.12
2022-10-30T06:45:28.025Z,15.78
2022-10-30T06:47:56.614Z,16.08
2022-10-30T06:50:25.432Z,16.45
2022-10-30T06:52:56.044Z,15.77
2022-10-30T06:55:24.275Z,16.69
2022-10-30T06:57:56.764Z,17.14
2022-10-30T07:00:25.645Z,17.64
2022-10-30T07:02:59.054Z,17.65
2022-10-30T07:05:27.658Z,17.41
2022-10-30T07:07:59.254Z,18.28
2022-10-30T07:10:30.499Z,18.79
2022-10-30T07:13:00.134Z,18.11
2022-10-30T07:15:29.092Z,17.93
2022-10-30T07:17:58.911Z,18.89
2022-10-30T07:20:29.836Z,18.67
2022-10-30T07:22:59.741Z,19.30
2022-10-30T07:25:28.099Z,19.43
2022-10-30T07:27:58.148Z,18.94
2022-10-30T07:30:28.331Z,19.62
2022-10-30T07:33:01.056Z,19.59
2022-10-30T07:35:30.579Z,20.57
2022-10-30T07:38:03.440Z,20.18
2022-10-30T07:40:31.729Z,20.96
2022-10-30T07:43:01.166Z,22.60
2022-10-30T07:45:30.176Z,21.72
2022-10-30T07:47:58.562Z,21.93
2022-10-30T07:50:27.745Z,21.90
2022-10-30T07:52:55.974Z,22.09
2022-10-30T07:55:25.740Z,21.82
2022-10-30T07:57:53.929Z,21.61
2022-10-30T08:00:22.359Z,22.59
2022-10-30T08:02:51.868Z,22.41
2022-10-30T08:05:21.016Z,21.99
2022-10-30T08:07:51.480Z,22.10
2022-10-30T08:10:19.775Z,21.56
2022-10-30T08:12:49.317Z,22.65
2022-10-30T08:15:17.582Z,22.86
2022-10-30T08:17:46.749Z,23.22
2022-10-30T08:20:16.906Z,23.55
2022-10-30T08:22:49.003Z,23.63
2022-10-30T08:25:19.191Z,23.61
2022-10-30T08:27:57.411Z,24.69
2022-10-30T08:30:26.721Z,24.47
2022-10-30T08:32:58.983Z,24.06
2022-10-30T08:35:27.760Z,24.92
2022-10-30T08:37:57.112Z,25.96
2022-10-30T08:40:26.277Z,26.05
2022-10-30T08:42:56.873Z,26.28
2022-10-30T08:45:29.974Z,25.09
2022-10-30T08:48:01.386Z,25.85
2022-10-30T08:50:30.262Z,25.78
2022-10-30T08:53:02.353Z,27.30
2022-10-30T08:55:31.310Z,28.87
2022-10-30T08:58:01.057Z,27.20
2022-10-30T09:00:29.800Z,27.66
2022-10-30T09:02:58.627Z,27.12
2022-10-30T09:05:27.253Z,27.00
2022-10-30T09:07:58.105Z,27.79
2022-10-30T09:10:27.719Z,28.03
2022-10-30T09:12:56.874Z,27.50
2022-10-30T09:15:27.701Z,27.35
2022-10-30T09:17:59.915Z,27.62
2022-10-30T09:20:29.066Z,27.98
2022-10-30T09:22:59.660Z,28.38
2022-10-30T09:25:28.175Z,28.85
2022-10-30T09:27:56.380Z,29.28
2022-10-30T09:30:26.736Z,30.83
2022-10-30T09:32:59.012Z,30.74
2022-10-30T09:35:27.941Z,29.63
2022-10-30T09:37:56.538Z,30.48
2022-10-30T09:40:35.899Z,30.63
2022-10-30T09:43:16.104Z,29.97
2022-10-30T09:46:17.088Z,30.02
2022-10-30T09:49:03.513Z,30.08
2022-10-30T09:51:54.599Z,31.98
2022-10-30T09:54:35.694Z,31.50
2022-10-30T09:57:12.085Z,30.69
2022-10-30T09:59:51.563Z,31.53
2022-10-30T10:02:33.759Z,32.60
2022-10-30T10:05:11.674Z,30.84
2022-10-30T10:07:46.074Z,30.93
2022-10-30T10:10:21.669Z,31.32
2022-10-30T10:12:53.852Z,30.91
2022-10-30T10:15:36.108Z,32.10
2022-10-30T10:18:13.908Z,32.31
2022-10-30T10:20:45.299Z,31.92
2022-10-30T10:23:19.638Z,31.96
2022-10-30T10:25:54.677Z,32.09
2022-10-30T10:28:47.417Z,32.18
2022-10-30T10:31:39.435Z,33.38
2022-10-30T10:34:42.212Z,32.80
2022-10-30T10:37:21.702Z,32.24
2022-10-30T10:40:04.041Z,33.05
2022-10-30T10:42:42.640Z,32.09
2022-10-30T10:45:25.687Z,32.59
2022-10-30T10:48:18.340Z,32.76
2022-10-30T10:50:54.008Z,33.73
2022-10-30T10:53:27.475Z,33.66
2022-10-30T10:56:00.098Z,34.78
2022-10-30T10:58:32.406Z,34.62
2022-10-30T11:01:01.586Z,33.97
2022-10-30T11:03:44.407Z,33.39
2022-10-30T11:06:22.947Z,33.31
2022-10-30T11:08:53.672Z,34.60
2022-10-30T11:11:21.918Z,33.77
2022-10-30T11:13:51.279Z,34.19
2022-10-30T11:16:28.543Z,34.13
2022-10-30T11:19:02.068Z,33.54
2022-10-30T11:21:36.488Z,33.98
2022-10-30T11:24:04.899Z,34.69
2022-10-30T11:26:35.557Z,35.17
2022-10-30T11:29:12.983Z,34.45
2022-10-30T11:31:43.038Z,34.62
2022-10-30T11:34:33.332Z,34.05
2022-10-30T11:37:03.516Z,34.74
2022-10-30T11:39:34.246Z,35.00
2022-10-30T11:42:06.660Z,34.29
2022-10-30T11:44:42.545Z,34.62
2022-10-30T11:47:13.544Z,34.42
2022-10-30T11:49:47.248Z,34.56
2022-10-30T11:52:20.307Z,33.81
2022-10-30T11:54:53.571Z,33.82
2022-10-30T11:57:25.366Z,34.46
2022-10-30T12:00:00.572Z,35.31
2022-10-30T12:02:42.525Z,35.94
2022-10-30T12:05:31.790Z,34.39
2022-10-30T12:08:19.880Z,34.56
2022-10-30T12:10:55.802Z,34.89
2022-10-30T12:13:26.275Z,34.74
2022-10-30T12:16:08.066Z,35.13
2022-10-30T12:18:36.920Z,33.99
2022-10-30T12:21:05.702Z,33.92
2022-10-30T12:23:36.144Z,33.81
2022-10-30T12:26:12.209Z,34.60
2022-10-30T12:28:41.038Z,35.11
2022-10-30T12:31:15.738Z,34.90
2022-10-30T12:33:50.371Z,34.38
2022-10-30T12:36:22.311Z,33.27
2022-10-30T12:38:59.556Z,33.51
2022-10-30T12:41:31.338Z,33.32
2022-10-30T12:44:04.857Z,34.18
2022-10-30T12:46:39.808Z,33.76
2022-10-30T12:49:19.551Z,33.74
2022-10-30T12:51:52.842Z,34.58
2022-10-30T12:54:32.325Z,34.47
2022-10-30T12:57:08.695Z,34.45
2022-10-30T12:59:45.672Z,33.42
2022-10-30T13:02:25.176Z,33.92
2022-10-30T13:04:59.463Z,34.11
2022-10-30T13:07:33.238Z,33.99
2022-10-30T13:10:20.170Z,33.98
2022-10-30T13:12:54.732Z,32.91
2022-10-30T13:15:31.004Z,32.16
2022-10-30T13:18:00.848Z,31.71
2022-10-30T13:20:31.653Z,32.52
2022-10-30T13:23:07.262Z,33.25
2022-10-30T13:25:43.444Z,33.35
2022-10-30T13:28:19.231Z,33.61
2022-10-30T13:31:00.627Z,33.06
2022-10-30T13:33:37.716Z,33.16
2022-10-30T13:36:12.782Z,32.49
2022-10-30T13:38:53.785Z,32.58
2022-10-30T13:41:32.676Z,33.09
2022-10-30T13:44:11.307Z,33.52
2022-10-30T13:46:59.596Z,33.75
2022-10-30T13:49:44.010Z,33.53
2022-10-30T13:52:15.702Z,33.09
2022-10-30T13:54:50.650Z,33.14
2022-10-30T13:57:30.208Z,32.58
2022-10-30T14:00:05.616Z,31.85
2022-10-30T14:02:48.932Z,30.61
2022-10-30T14:05:30.200Z,29.35
2022-10-30T14:08:06.949Z,29.56
2022-10-30T14:10:53.305Z,28.86
2022-10-30T14:13:30.313Z,28.52
2022-10-30T14:16:02.492Z,28.46
2022-10-30T14:18:47.436Z,28.13
2022-10-30T14:21:41.961Z,27.84
2022-10-30T14:24:16.815Z,27.42
2022-10-30T14:26:52.694Z,26.46
2022-10-30T14:29:53.251Z,26.71
2022-10-30T14:32:40.246Z,26.64
2022-10-30T14:35:38.268Z,25.61
2022-10-30T14:38:27.136Z,25.63
2022-10-30T14:41:14.691Z,25.17
2022-10-30T14:43:53.671Z,23.57
2022-10-30T14:46:29.112Z,22.77
2022-10-30T14:49:11.032Z,23.33
2022-10-30T14:51:46.339Z,22.82
2022-10-30T14:54:23.089Z,22.79
2022-10-30T14:56:54.202Z,22.46
2022-10-30T14:59:33.434Z,22.51
2022-10-30T15:02:22.421Z,21.72
2022-10-30T15:05:20.496Z,21.91
2022-10-30T15:07:53.593Z,22.16
2022-10-30T15:10:27.245Z,22.90
2022-10-30T15:13:13.277Z,22.46
2022-10-30T15:15:46.558Z,21.35
2022-10-30T15:18:22.486Z,22.20
2022-10-30T15:20:54.127Z,22.11
2022-10-30T15:23:26.396Z,22.29
2022-10-30T15:25:56.607Z,21.46
2022-10-30T15:28:29.406Z,20.56
2022-10-30T15:31:05.059Z,20.38
2022-10-30T15:33:38.081Z,20.75
2022-10-30T15:36:07.385Z,21.21
2022-10-30T15:38:36.019Z,20.80
2022-10-30T15:41:08.672Z,20.87
2022-10-30T15:43:41.624Z,20.55
2022-10-30T15:46:11.375Z,20.33
2022-10-30T15:48:47.101Z,20.40
2022-10-30T15:51:18.416Z,20.56
2022-10-30T15:53:49.450Z,20.33
2022-10-30T15:56:20.384Z,19.99
2022-10-30T15:58:54.714Z,20.23
2022-10-30T16:01:27.753Z,20.37
2022-10-30T16:03:57.496Z,20.70
2022-10-30T16:06:27.773Z,20.48
2022-10-30T16:09:00.383Z,20.77
2022-10-30T16:11:29.308Z,20.69
2022-10-30T16:13:57.762Z,20.66
2022-10-30T16:16:35.206Z,20.66
2022-10-30T16:19:07.393Z,20.08
2022-10-30T16:21:40.227Z,19.75
2022-10-30T16:24:11.522Z,19.71
2022-10-30T16:26:50.411Z,19.92
2022-10-30T16:29:25.617Z,19.87
2022-10-30T16:31:55.035Z,19.57
2022-10-30T16:34:32.161Z,20.03
2022-10-30T16:37:01.225Z,19.97
2022-10-30T16:39:30.145Z,19.83
2022-10-30T16:41:59.127Z,19.68
2022-10-30T16:44:29.258Z,18.97
2022-10-30T16:46:59.803Z,19.46
2022-10-30T16:49:31.839Z,19.61
2022-10-30T16:52:03.710Z,19.50
2022-10-30T16:54:36.860Z,19.40
2022-10-30T16:57:11.092Z,19.24
2022-10-30T16:59:46.983Z,19.29
2022-10-30T17:02:21.331Z,19.14
2022-10-30T17:04:57.172Z,18.16
2022-10-30T17:07:28.093Z,17.73
2022-10-30T17:09:58.736Z,17.59
2022-10-30T17:12:28.303Z,17.61
2022-10-30T17:15:04.383Z,17.70
2022-10-30T17:17:35.353Z,17.72
2022-10-30T17:20:07.740Z,18.05
2022-10-30T17:22:36.229Z,18.46
2022-10-30T17:25:17.334Z,18.73
2022-10-30T17:27:49.364Z,18.41
2022-10-30T17:30:35.734Z,18.66
2022-10-30T17:33:23.569Z,16.88
2022-10-30T17:38:22.807Z,17.20
2022-10-30T17:40:51.287Z,17.25
2022-10-30T17:43:19.700Z,17.52
2022-10-30T17:45:47.929Z,17.91
2022-10-30T17:48:17.606Z,17.62
2022-10-30T17:50:46.279Z,17.74
2022-10-30T17:53:21.962Z,18.08
2022-10-30T17:55:56.852Z,17.97
2022-10-30T17:58:25.356Z,16.86
2022-10-30T18:00:54.389Z,16.52
2022-10-30T18:03:22.758Z,16.47
2022-10-30T18:05:51.959Z,16.76
2022-10-30T18:08:22.084Z,17.14
2022-10-30T18:10:50.666Z,17.30
2022-10-30T18:13:20.128Z,17.21
2022-10-30T18:15:53.989Z,17.70
2022-10-30T18:18:25.455Z,17.81
2022-10-30T18:20:53.884Z,17.11
2022-10-30T18:26:16.895Z,17.45
2022-10-30T18:28:45.562Z,16.80
2022-10-30T18:31:15.119Z,16.43
2022-10-30T18:33:44.394Z,16.10
2022-10-30T18:36:14.560Z,15.77
2022-10-30T18:38:44.327Z,15.92
2022-10-30T18:41:16.744Z,16.49
2022-10-30T18:43:47.085Z,16.15
2022-10-30T18:46:17.314Z,15.79
2022-10-30T18:48:46.585Z,16.17
2022-10-30T18:51:19.003Z,16.32
2022-10-30T18:53:52.699Z,16.84
2022-10-30T18:56:22.770Z,16.35
2022-10-30T18:58:56.386Z,16.30
2022-10-30T19:01:33.217Z,16.17
2022-10-30T19:04:04.008Z,15.84
2022-10-30T19:06:34.808Z,15.74
2022-10-30T19:09:05.339Z,15.83
2022-10-30T19:11:33.756Z,15.84
2022-10-30T19:14:02.413Z,15.71
2022-10-30T19:16:30.664Z,15.38
2022-10-30T19:18:59.151Z,15.43
2022-10-30T19:21:28.178Z,16.01
2022-10-30T19:23:56.658Z,16.51
2022-10-30T19:26:26.345Z,16.09
2022-10-30T19:28:57.129Z,16.31
2022-10-30T19:31:25.956Z,16.68
2022-10-30T19:33:57.516Z,16.70
2022-10-30T19:36:31.990Z,16.48
2022-10-30T19:39:05.833Z,16.46
2022-10-30T19:41:39.096Z,16.73
2022-10-30T19:44:07.740Z,16.65
2022-10-30T19:46:36.752Z,16.61
2022-10-30T19:49:16.563Z,16.57
2022-10-30T19:51:45.641Z,16.61
2022-10-30T19:54:14.112Z,16.62
2022-10-30T19:56:44.347Z,16.22
2022-10-30T19:59:14.495Z,15.85
2022-10-30T20:01:44.307Z,15.95
2022-10-30T20:04:12.816Z,16.13
2022-10-30T20:06:41.118Z,16.20
2022-10-30T20:09:11.967Z,16.10
2022-10-30T20:11:40.258Z,16.09
2022-10-30T20:14:10.506Z,16.00
2022-10-30T20:16:38.768Z,16.05
2022-10-30T20:19:27.291Z,15.80
2022-10-30T20:21:55.732Z,15.93
2022-10-30T20:24:24.087Z,16.00
2022-10-30T20:26:53.004Z,15.68
2022-10-30T20:29:23.885Z,15.81
2022-10-30T20:31:52.112Z,15.86
2022-10-30T20:34:20.384Z,15.59
2022-10-30T20:36:49.576Z,15.43
2022-10-30T20:39:17.844Z,15.55
2022-10-30T20:41:46.152Z,15.57
2022-10-30T20:44:14.542Z,15.59
2022-10-30T20:46:44.431Z,15.64
2022-10-30T20:49:17.590Z,15.44
2022-10-30T20:51:46.725Z,15.47
2022-10-30T20:54:15.066Z,15.49
2022-10-30T20:56:43.317Z,15.50
2022-10-30T20:59:11.611Z,15.45
2022-10-30T21:01:39.986Z,15.55
2022-10-30T21:04:09.715Z,15.46
2022-10-30T21:06:37.892Z,15.49
2022-10-30T21:09:06.408Z,15.44
2022-10-30T21:11:34.715Z,15.44
2022-10-30T21:14:02.950Z,15.37
2022-10-30T21:16:31.248Z,15.34
2022-10-30T21:18:59.742Z,15.38
2022-10-30T21:21:29.426Z,15.37
2022-10-30T21:23:57.964Z,15.25
2022-10-30T21:26:26.210Z,15.25
2022-10-30T21:28:54.609Z,15.21
2022-10-30T21:31:22.933Z,15.16
2022-10-30T21:33:51.274Z,15.17
2022-10-30T21:36:21.154Z,15.23
2022-10-30T21:38:50.919Z,15.07
2022-10-30T21:41:20.979Z,15.13
2022-10-30T21:43:53.643Z,14.88
2022-10-30T21:46:22.773Z,14.61
2022-10-30T21:48:52.183Z,14.68
2022-10-30T21:51:22.174Z,14.44
2022-10-30T21:53:53.455Z,13.90
2022-10-30T21:56:23.355Z,13.57
2022-10-30T21:58:52.517Z,13.36
2022-10-30T22:01:22.659Z,13.54
2022-10-30T22:03:51.259Z,13.57
2022-10-30T22:06:21.090Z,14.26
2022-10-30T22:08:51.978Z,14.49
2022-10-30T22:11:26.759Z,14.58
2022-10-30T22:13:55.943Z,14.72
2022-10-30T22:16:24.546Z,14.41
2022-10-30T22:18:52.861Z,14.62
2022-10-30T22:21:21.083Z,14.79
2022-10-30T22:23:49.480Z,14.89
2022-10-30T22:26:20.092Z,14.99
2022-10-30T22:28:55.264Z,13.87
2022-10-30T22:31:28.921Z,13.90
2022-10-30T22:33:57.379Z,13.68
2022-10-30T22:36:27.797Z,13.74
2022-10-30T22:38:58.144Z,13.49
2022-10-30T22:41:28.750Z,14.42
2022-10-30T22:44:01.051Z,14.50
2022-10-30T22:46:33.803Z,14.48
2022-10-30T22:49:02.039Z,14.77
2022-10-30T22:51:33.281Z,14.31
2022-10-30T22:54:04.143Z,14.66
2022-10-30T22:56:33.949Z,14.63
2022-10-30T22:59:05.248Z,14.56
2022-10-30T23:01:35.203Z,14.53
2022-10-30T23:04:04.881Z,14.28
2022-10-30T23:06:34.558Z,14.31
2022-10-30T23:09:06.247Z,13.43
2022-10-30T23:11:34.932Z,13.06
2022-10-30T23:14:07.583Z,13.17
2022-10-30T23:16:35.865Z,13.02
2022-10-30T23:19:04.113Z,13.28
2022-10-30T23:21:32.958Z,13.35
2022-10-30T23:24:03.511Z,14.17
2022-10-30T23:26:33.178Z,14.14
2022-10-30T23:29:02.105Z,14.05
2022-10-30T23:31:33.710Z,14.22
2022-10-30T23:34:03.255Z,14.01
2022-10-30T23:36:31.875Z,14.18
2022-10-30T23:39:01.691Z,14.04
2022-10-30T23:41:34.368Z,14.05
2022-10-30T23:44:05.122Z,14.12
2022-10-30T23:46:36.382Z,13.93
2022-10-30T23:49:05.195Z,14.10
2022-10-30T23:51:33.524Z,14.15
2022-10-30T23:54:01.936Z,14.00
2022-10-30T23:56:30.695Z,14.06
2022-10-30T23:58:59.304Z,13.71
